sensor_id;sensor_type;location;lat;lon;timestamp;pressure;altitude;pressure_sealevel;temperature;humidity
48942;BME280;35340;52.378;4.648;2022-11-20T00:01:49;101492.00;;;14.74;64.23
48942;BME280;35340;52.378;4.648;2022-11-20T00:05:15;101486.81;;;14.74;64.19
48942;BME280;35340;52.378;4.648;2022-11-20T00:18:26;101482.44;;;14.72;64.28
48942;BME280;35340;52.378;4.648;2022-11-20T01:13:47;101458.19;;;14.65;63.82
48942;BME280;35340;52.378;4.648;2022-11-20T01:20:13;101452.16;;;14.66;63.38
48942;BME280;35340;52.378;4.648;2022-11-20T01:26:47;101461.66;;;14.67;63.64
48942;BME280;35340;52.378;4.648;2022-11-20T01:36:40;101446.13;;;14.67;63.27
48942;BME280;35340;52.378;4.648;2022-11-20T05:58:35;101286.16;;;14.49;62.39
48942;BME280;35340;52.378;4.648;2022-11-20T06:15:26;101269.75;;;14.47;61.97
48942;BME280;35340;52.378;4.648;2022-11-20T06:18:26;101262.84;;;14.46;62.73
48942;BME280;35340;52.378;4.648;2022-11-20T06:21:03;101266.28;;;14.45;62.94
48942;BME280;35340;52.378;4.648;2022-11-20T06:23:30;101255.88;;;14.44;63.00
48942;BME280;35340;52.378;4.648;2022-11-20T06:25:56;101246.41;;;14.43;63.15
48942;BME280;35340;52.378;4.648;2022-11-20T06:28:21;101253.31;;;14.42;62.11
48942;BME280;35340;52.378;4.648;2022-11-20T06:30:47;101252.44;;;14.43;62.49
48942;BME280;35340;52.378;4.648;2022-11-20T06:33:12;101253.28;;;14.44;62.53
48942;BME280;35340;52.378;4.648;2022-11-20T06:35:38;101250.72;;;14.44;62.17
48942;BME280;35340;52.378;4.648;2022-11-20T06:38:03;101248.13;;;14.44;62.79
48942;BME280;35340;52.378;4.648;2022-11-20T06:40:28;101253.28;;;14.44;62.18
48942;BME280;35340;52.378;4.648;2022-11-20T06:42:54;101248.13;;;14.44;61.89
48942;BME280;35340;52.378;4.648;2022-11-20T06:45:20;101238.66;;;14.44;61.45
48942;BME280;35340;52.378;4.648;2022-11-20T06:47:46;101233.47;;;14.44;61.09
48942;BME280;35340;52.378;4.648;2022-11-20T06:50:11;101229.13;;;14.43;61.53
48942;BME280;35340;52.378;4.648;2022-11-20T06:52:37;101229.16;;;14.45;60.97
48942;BME280;35340;52.378;4.648;2022-11-20T06:55:02;101233.47;;;14.46;61.19
48942;BME280;35340;52.378;4.648;2022-11-20T06:57:28;101234.34;;;14.48;61.55
48942;BME280;35340;52.378;4.648;2022-11-20T06:59:53;101225.75;;;14.49;61.47
48942;BME280;35340;52.378;4.648;2022-11-20T07:02:18;101226.66;;;14.54;61.40
48942;BME280;35340;52.378;4.648;2022-11-20T07:04:44;101234.50;;;14.58;61.44
48942;BME280;35340;52.378;4.648;2022-11-20T07:07:15;101231.06;;;14.59;61.18
48942;BME280;35340;52.378;4.648;2022-11-20T07:09:41;101234.50;;;14.60;61.23
48942;BME280;35340;52.378;4.648;2022-11-20T07:12:28;101233.66;;;14.63;61.37
48942;BME280;35340;52.378;4.648;2022-11-20T07:14:53;101235.41;;;14.64;61.85
48942;BME280;35340;52.378;4.648;2022-11-20T07:17:18;101238.84;;;14.63;61.47
48942;BME280;35340;52.378;4.648;2022-11-20T07:19:44;101238.00;;;14.65;61.34
48942;BME280;35340;52.378;4.648;2022-11-20T07:22:09;101239.75;;;14.66;61.62
48942;BME280;35340;52.378;4.648;2022-11-20T07:24:35;101244.97;;;14.68;61.59
48942;BME280;35340;52.378;4.648;2022-11-20T07:27:00;101242.38;;;14.68;61.98
48942;BME280;35340;52.378;4.648;2022-11-20T07:29:27;101234.59;;;14.69;61.70
48942;BME280;35340;52.378;4.648;2022-11-20T07:31:58;101234.63;;;14.71;61.90
48942;BME280;35340;52.378;4.648;2022-11-20T07:34:24;101232.03;;;14.71;61.63
48942;BME280;35340;52.378;4.648;2022-11-20T07:36:49;101224.28;;;14.72;61.92
48942;BME280;35340;52.378;4.648;2022-11-20T07:39:15;101225.13;;;14.73;62.04
48942;BME280;35340;52.378;4.648;2022-11-20T07:41:40;101221.66;;;14.74;61.65
48942;BME280;35340;52.378;4.648;2022-11-20T07:44:06;101221.69;;;14.75;62.01
48942;BME280;35340;52.378;4.648;2022-11-20T07:46:31;101219.13;;;14.77;61.58
48942;BME280;35340;52.378;4.648;2022-11-20T07:48:57;101226.97;;;14.83;61.95
48942;BME280;35340;52.378;4.648;2022-11-20T07:51:22;101224.34;;;14.85;61.65
48942;BME280;35340;52.378;4.648;2022-11-20T07:53:51;101223.50;;;14.84;61.80
48942;BME280;35340;52.378;4.648;2022-11-20T07:56:24;101221.78;;;14.83;61.52
48942;BME280;35340;52.378;4.648;2022-11-20T07:59:08;101226.91;;;14.80;63.46
48942;BME280;35340;52.378;4.648;2022-11-20T19:34:08;100501.50;;;14.86;62.93
48942;BME280;35340;52.378;4.648;2022-11-20T19:40:47;100501.50;;;14.86;62.48
